This is the latest recevied weather packets stored in our database for station/object HS0TK-1. If no packets are shown the sender has not sent any weather packets the latest 10 day(s).
| Time | Temp. | Humidity | Pressure | Rain* | Wind** | Luminosity | Snow |
|---|---|---|---|---|---|---|---|
| 1777864692 | 35° C | 54% | 1011 hPa | - | - | 0 W/m² | - |
| 1777863763 | 34.44° C | 56% | 1011 hPa | - | - | 0 W/m² | - |
| 1777862837 | 34.44° C | 56% | 1011 hPa | - | - | 0 W/m² | - |
| 1777861908 | 33.89° C | 57% | 1011 hPa | - | - | 0 W/m² | - |
| 1777860976 | 33.89° C | 58% | 1011 hPa | - | - | 0 W/m² | - |
| 1777860031 | 33.33° C | 60% | 1011 hPa | - | - | 0 W/m² | - |
| 1777859102 | 32.78° C | 60% | 1011 hPa | - | - | 0 W/m² | - |
| 1777858173 | 32.78° C | 60% | 1011 hPa | - | - | 0 W/m² | - |
| 1777857245 | 32.78° C | 60% | 1011 hPa | - | - | 0 W/m² | - |
| 1777856316 | 32.78° C | 59% | 1011 hPa | - | - | 0 W/m² | - |
| 1777855385 | 32.22° C | 58% | 1010 hPa | - | - | 0 W/m² | - |
| 1777854454 | 32.22° C | 55% | 1010 hPa | - | - | 0 W/m² | - |
| 1777819054 | 35° C | 47% | 1008 hPa | - | - | 0 W/m² | - |
| 1777818098 | 35° C | 47% | 1008 hPa | - | - | 0 W/m² | - |
| 1777817157 | 35° C | 47% | 1008 hPa | - | - | 0 W/m² | - |
| 1777816222 | 35.56° C | 47% | 1008 hPa | - | - | 0 W/m² | - |
| 1777815291 | 35.56° C | 46% | 1008 hPa | - | - | 0 W/m² | - |
| 1777814344 | 35.56° C | 45% | 1008 hPa | - | - | 0 W/m² | - |
| 1777814280 | 35.56° C | 45% | 1008 hPa | - | - | 0 W/m² | - |
| 1777813355 | 35.56° C | 45% | 1007 hPa | - | - | 0 W/m² | - |
| 1777812424 | 35.56° C | 44% | 1007 hPa | - | - | 0 W/m² | - |
| 1777811494 | 35° C | 44% | 1006 hPa | - | - | 0 W/m² | - |
| 1777810564 | 35° C | 42% | 1006 hPa | - | - | 0 W/m² | - |
| 1777809637 | 33.89° C | 41% | 1006 hPa | - | - | 0 W/m² | - |
| 1777808708 | 32.78° C | 38% | 1006 hPa | - | - | 0 W/m² | - |
* Rain since midnight (hover to see other rain measurements)
** Current wind speed in m/s (hover to see current wind gust speed)